Terminal Aerodrome Forecast
Issued by NWS

Current Version | Previous Version | Graphics & Text | Print | Product List | Glossary On
Versions: 1 2 3 4 5 6 7 8 9 10 11 12 13 14 15 16 17 18 19
000
FTUS41 KPBZ 071100
TAFMGW
TAF
KMGW 071120Z 0712/0812 22005KT P6SM BKN060
     FM071500 21010G20KT P6SM SCT050
     FM072200 23012G22KT P6SM -SHRA VCTS BKN050CB
     FM080100 24010KT P6SM BKN040=

USA.gov is the U.S. government's official web portal to all federal, state and local government web resources and services.